Aérodrome :
LOGIN :

S'inscrire | Disclaimer

   EN    FR    IT 

 










Légende :    VFR   VFR Marginal   IFR   IFR Intensif   IFR Très Intensif
Visi : 
Plafond : 
>= 8 km
>= 3000ft
5 à 8 km
1000 à 3000 ft
1500m à 5 km
500 à 1000 ft
800 à 1500m
200 à 500 ft
< 800m
< 200 ft
Symboles :   Orages  Brouillard  Fortes neiges  Fortes précipitations  Vent > 20 kt
SIGMETs :   Divers  Orages  Givrage  Turbulence  Onde Orograph.  Cendres Volcan.







- Altitude de l'aérodrome : -11 ft
- Code IATA : AMS


EHAM - Amsterdam Schiphol

DERNIER METAR :
  • 260355Z 22002KT 9999 MIFG VCSH FEW020CB 00/00 Q1010 TEMPO 36010KT 7000 -SHRAGS

METARs EXPIRÉS :
  • 260325Z VRB02KT 9999 MIFG FEW020CB M00/M01 Q1010 TEMPO 36010KT 7000 -SHRAGS
  • 260255Z 21002KT 9999 MIFG FEW032 01/01 Q1010 NOSIG
  • 260225Z 26002KT 9999 MIFG FEW025 02/02 Q1010 NOSIG
  • 260155Z 30003KT 9999 MIFG FEW025 01/01 Q1010 NOSIG
  • 260125Z 31005KT 9999 FEW025 02/01 Q1010 NOSIG

TAF TAF EHAM
Valide du 26 à 00h jusqu'au 27 à 06h UTC


252308Z 2600/2706 28005KT 9999 SCT025
PROB30
TEMPO 2600/2609 34010KT 7000 -SHRA -SHRAGS SCT020CB
BECMG 2608/2611 34013KT
TEMPO 2609/2617 35015G25KT 5000 SHRA SHRAGS SCT020CB
BECMG 2618/2621 33005KT
PROB30
TEMPO 2700/2706 35012KT 7000 -SHRA -SHRAGS SCT020CB
Pas de NOTAMs connus pour ce terrain.



MET'MAP, la Météo Aéronautique d'un coup d'oeil ! - Copyright ORBIFLY Décembre 2007 - Disclaimer

ORBIFLY MET'MAP TEAM :

Programmation & Développement : Alexandra Zaïnal
Conception & Développement : Baudouin d'Aumeries
Co-Programmation & Développement : Marc-Olivier Méhu
Soutien technique & logistique : Manuel Goepfert

Contact : metmap@orbifly.com




SOURCES & CREDITS :

   NOAA